Terminal Aerodrome Forecast
Issued by NWS Charleston, WV

Home | Current Version | Previous Version | Text Only | Print | Product List | Glossary On
Versions: 1 2 3 4 5 6 7 8 9 10 11 12 13 14 15 16 17 18 19 20 21 22 23 24 25 26 27 28 29 30
000
FTUS41 KRLX 291900 AAA
TAFBKW
TAF AMD
KBKW 291957Z 2920/3018 22008KT P6SM SKC
     FM292100 22008KT P6SM SCT200
     FM300300 18007G18KT P6SM BKN110
     FM300800 23012G22KT 4SM -SHRA BR BKN025
     FM301000 25009G20KT 4SM -SHRA BR BKN008
     FM301300 28010G22KT 5SM -SHRA BR BKN020
     FM301500 29012G20KT P6SM SCT030=

USA.gov is the U.S. government's official web portal to all federal, state and local government web resources and services.